Time;durP1;ratioP1;P1;durP2;ratioP2;P2;SDS_P1;SDS_P2;PMS_P1;PMS_P2;Temp;Humidity;BMP_temperature;BMP_pressure;BME280_temperature;BME280_humidity;BME280_pressure;Samples;Min_cycle;Max_cycle;Signal;HPM_P1;HPM_P2
2021/12/03 00:02:08;;;;;;;8.52;1.80;;;0.60;85.60;;;;;;5015111;28;20056;-63
2021/12/03 00:04:33;;;;;;;9.93;1.67;;;0.60;86.00;;;;;;5020202;28;20030;-63
2021/12/03 00:06:59;;;;;;;5.00;1.50;;;0.70;86.10;;;;;;4996191;28;20450;-64
2021/12/03 00:09:25;;;;;;;4.32;1.55;;;0.70;86.40;;;;;;5012245;28;20029;-63
2021/12/03 00:11:51;;;;;;;7.97;1.40;;;0.70;86.50;;;;;;4997883;28;20025;-64
2021/12/03 00:14:17;;;;;;;2.90;1.30;;;0.60;86.30;;;;;;5011676;28;20034;-64
2021/12/03 00:16:42;;;;;;;2.80;1.42;;;0.60;86.50;;;;;;5009470;28;20080;-63
2021/12/03 00:19:08;;;;;;;5.68;1.50;;;0.60;86.70;;;;;;5013058;28;20072;-64
2021/12/03 00:21:34;;;;;;;3.55;1.30;;;0.60;86.70;;;;;;5014164;28;20043;-63
2021/12/03 00:23:59;;;;;;;6.63;1.30;;;0.60;86.70;;;;;;4996335;28;20049;-64
2021/12/03 00:26:25;;;;;;;4.60;1.20;;;0.60;86.80;;;;;;4991756;28;20135;-63
2021/12/03 00:28:51;;;;;;;3.95;1.20;;;0.60;86.90;;;;;;5014272;28;20069;-63
2021/12/03 00:31:17;;;;;;;3.45;1.15;;;0.60;86.70;;;;;;5017456;28;20037;-63
2021/12/03 00:33:43;;;;;;;6.55;1.60;;;0.60;86.80;;;;;;5017155;28;20033;-64
2021/12/03 00:36:10;;;;;;;3.78;1.25;;;0.60;86.50;;;;;;5013273;28;20769;-63
2021/12/03 00:38:43;;;;;;;6.68;1.40;;;0.60;86.60;;;;;;5010774;28;20083;-64
2021/12/03 00:41:13;;;;;;;17.77;2.20;;;0.60;86.80;;;;;;5012086;28;20029;-63
2021/12/03 00:43:50;;;;;;;7.85;1.63;;;0.60;86.50;;;;;;4994808;28;20052;-63
2021/12/03 00:46:17;;;;;;;4.80;1.35;;;0.60;87.20;;;;;;5020016;28;20034;-63
2021/12/03 00:48:45;;;;;;;2.97;1.30;;;0.60;87.00;;;;;;5011998;28;20018;-63
2021/12/03 00:51:12;;;;;;;3.17;1.48;;;0.60;87.20;;;;;;5012274;28;20030;-64
2021/12/03 00:53:38;;;;;;;2.72;1.40;;;0.60;87.50;;;;;;5015188;28;20029;-63
2021/12/03 00:56:06;;;;;;;3.83;1.83;;;0.60;87.80;;;;;;5009082;28;20045;-64
2021/12/03 00:58:32;;;;;;;3.83;1.25;;;0.60;87.40;;;;;;5015677;28;20116;-63
2021/12/03 01:00:57;;;;;;;4.40;1.95;;;0.60;87.50;;;;;;5013440;28;20145;-64
2021/12/03 01:03:23;;;;;;;2.85;1.65;;;0.60;87.50;;;;;;5015469;28;20843;-63
2021/12/03 01:05:49;;;;;;;2.90;1.33;;;0.60;87.60;;;;;;5012035;28;20233;-63
2021/12/03 01:08:15;;;;;;;3.13;1.58;;;0.60;87.30;;;;;;5007533;28;20033;-63
2021/12/03 01:10:41;;;;;;;8.32;2.35;;;0.50;87.50;;;;;;5014342;28;20031;-63
2021/12/03 01:13:06;;;;;;;4.05;1.75;;;0.60;87.80;;;;;;5015644;28;20537;-63
2021/12/03 01:15:40;;;;;;;4.40;1.60;;;0.60;87.40;;;;;;5018696;28;20025;-63
2021/12/03 01:18:07;;;;;;;3.50;1.60;;;0.60;87.70;;;;;;5010086;28;20103;-63
2021/12/03 01:20:34;;;;;;;2.30;1.67;;;0.60;88.10;;;;;;5009548;28;20029;-63
2021/12/03 01:23:00;;;;;;;4.32;2.25;;;0.60;88.10;;;;;;5015867;28;20041;-63
2021/12/03 01:25:27;;;;;;;2.45;1.50;;;0.50;88.20;;;;;;5010439;28;20095;-63
2021/12/03 01:27:53;;;;;;;2.70;1.90;;;0.50;88.00;;;;;;5015017;28;20033;-63
2021/12/03 01:30:22;;;;;;;2.72;1.65;;;0.50;88.10;;;;;;5013275;28;20041;-63
2021/12/03 01:32:50;;;;;;;4.35;2.20;;;0.50;88.60;;;;;;5012707;28;20394;-64
2021/12/03 01:35:16;;;;;;;2.65;1.40;;;0.50;89.40;;;;;;5013226;28;20034;-63
2021/12/03 01:37:43;;;;;;;4.38;2.05;;;0.50;88.90;;;;;;5010346;28;20034;-63
2021/12/03 01:40:13;;;;;;;3.67;1.92;;;0.50;89.30;;;;;;5014099;28;20120;-63
2021/12/03 01:42:41;;;;;;;5.57;2.08;;;0.50;89.40;;;;;;4997241;28;20076;-63
2021/12/03 01:45:09;;;;;;;7.35;2.72;;;0.60;89.30;;;;;;5015376;28;20035;-63
2021/12/03 01:47:35;;;;;;;5.43;2.55;;;0.70;89.10;;;;;;5010921;28;20478;-63
2021/12/03 01:50:01;;;;;;;4.03;1.95;;;0.70;88.90;;;;;;5009203;28;20028;-63
2021/12/03 01:52:27;;;;;;;4.00;2.10;;;0.70;88.30;;;;;;5014239;28;20108;-63
2021/12/03 01:54:53;;;;;;;5.45;2.08;;;0.70;88.20;;;;;;5017415;28;20036;-63
2021/12/03 01:57:19;;;;;;;9.55;2.30;;;0.70;88.50;;;;;;5020583;28;20045;-63
2021/12/03 01:59:45;;;;;;;3.97;1.92;;;0.70;88.30;;;;;;5014286;28;20508;-64
2021/12/03 02:02:12;;;;;;;5.72;2.38;;;0.70;88.40;;;;;;5006477;28;20167;-64
2021/12/03 02:04:38;;;;;;;3.65;2.38;;;0.70;88.40;;;;;;5019382;28;20743;-63
2021/12/03 02:07:04;;;;;;;5.80;1.75;;;0.60;88.10;;;;;;5012403;28;20033;-66
2021/12/03 02:09:30;;;;;;;6.55;2.13;;;0.60;88.20;;;;;;5021582;28;20436;-63
2021/12/03 02:11:55;;;;;;;4.15;2.30;;;0.70;88.70;;;;;;5015970;28;20121;-64
2021/12/03 02:14:21;;;;;;;5.93;2.20;;;0.70;88.60;;;;;;5018070;28;20099;-63
2021/12/03 02:16:47;;;;;;;4.32;2.45;;;0.70;88.40;;;;;;5014931;28;20018;-64
2021/12/03 02:19:13;;;;;;;3.88;1.85;;;0.70;88.30;;;;;;5009778;28;20030;-70
2021/12/03 02:21:39;;;;;;;3.30;1.75;;;0.70;88.50;;;;;;5017014;28;20076;-70
2021/12/03 02:24:05;;;;;;;6.40;2.20;;;0.70;88.70;;;;;;5019402;28;20034;-70
2021/12/03 02:26:31;;;;;;;5.80;1.95;;;0.70;88.50;;;;;;5023655;28;20048;-70
2021/12/03 02:28:57;;;;;;;3.03;1.90;;;0.70;88.70;;;;;;5012325;28;20488;-69
2021/12/03 02:31:24;;;;;;;6.13;1.70;;;0.80;88.50;;;;;;5018239;28;20038;-70
2021/12/03 02:33:51;;;;;;;4.25;1.70;;;0.80;88.70;;;;;;5018518;28;20895;-70
2021/12/03 02:36:18;;;;;;;4.03;1.50;;;0.80;88.50;;;;;;5015574;28;20104;-70
2021/12/03 02:38:45;;;;;;;5.07;1.45;;;0.90;88.40;;;;;;5018476;28;20067;-70
2021/12/03 02:41:11;;;;;;;3.83;1.98;;;0.90;88.30;;;;;;5014926;28;20029;-70
2021/12/03 02:43:37;;;;;;;5.47;1.83;;;0.90;88.00;;;;;;5014544;28;20064;-70
2021/12/03 02:46:03;;;;;;;7.18;1.48;;;0.90;88.80;;;;;;5015592;28;20120;-69
2021/12/03 02:48:31;;;;;;;6.10;1.67;;;1.00;87.90;;;;;;5009687;28;20103;-69
2021/12/03 02:50:57;;;;;;;3.67;1.90;;;1.00;87.80;;;;;;5020727;28;20445;-70
2021/12/03 02:53:23;;;;;;;11.95;2.95;;;1.10;87.50;;;;;;5000278;28;20057;-70
2021/12/03 02:55:50;;;;;;;5.03;1.50;;;1.10;87.30;;;;;;5016539;28;20434;-70
2021/12/03 02:58:16;;;;;;;2.70;1.42;;;1.20;87.20;;;;;;5016797;28;20037;-69
2021/12/03 03:00:46;;;;;;;3.10;1.30;;;1.20;86.80;;;;;;5008644;28;20033;-69
2021/12/03 03:03:12;;;;;;;6.30;1.63;;;1.20;86.50;;;;;;5018162;28;20033;-70
2021/12/03 03:05:38;;;;;;;4.32;1.45;;;1.20;86.70;;;;;;5017436;28;20402;-69
2021/12/03 03:08:04;;;;;;;6.88;1.63;;;1.30;86.50;;;;;;5015136;28;20108;-70
2021/12/03 03:10:33;;;;;;;2.58;1.50;;;1.30;86.30;;;;;;5012649;28;20025;-70
2021/12/03 03:13:00;;;;;;;4.18;1.75;;;1.30;86.00;;;;;;4995105;28;20136;-69
2021/12/03 03:15:26;;;;;;;4.57;2.17;;;1.40;86.30;;;;;;4999485;28;20033;-70
2021/12/03 03:17:52;;;;;;;5.50;1.83;;;1.40;85.50;;;;;;5010487;28;20136;-70
2021/12/03 03:20:19;;;;;;;4.13;1.60;;;1.50;85.40;;;;;;5018957;28;20507;-69
2021/12/03 03:22:47;;;;;;;5.13;1.20;;;1.40;85.20;;;;;;5014135;28;20062;-70
2021/12/03 03:25:16;;;;;;;4.95;1.25;;;1.50;85.40;;;;;;5015312;28;20022;-70
2021/12/03 03:27:43;;;;;;;8.63;1.88;;;1.50;85.40;;;;;;5014115;28;20096;-70
2021/12/03 03:30:12;;;;;;;5.68;1.88;;;1.50;85.40;;;;;;5011463;28;20052;-69
2021/12/03 03:32:38;;;;;;;3.83;1.35;;;1.60;85.00;;;;;;5016083;28;20033;-70
2021/12/03 03:35:04;;;;;;;3.88;1.60;;;1.60;84.70;;;;;;5016491;28;20754;-69
2021/12/03 03:37:30;;;;;;;8.52;1.98;;;1.60;84.80;;;;;;5018984;28;20026;-69
2021/12/03 03:39:56;;;;;;;6.75;2.42;;;1.60;84.50;;;;;;4993830;28;20548;-70
2021/12/03 03:42:21;;;;;;;5.70;1.42;;;1.70;84.90;;;;;;5012375;28;20133;-70
2021/12/03 03:44:48;;;;;;;2.45;1.70;;;1.70;84.40;;;;;;5016469;28;20026;-70
2021/12/03 03:47:14;;;;;;;3.03;1.50;;;1.70;84.20;;;;;;4998528;28;20044;-70
2021/12/03 03:49:40;;;;;;;2.95;1.40;;;1.70;84.00;;;;;;5019177;28;20037;-69
2021/12/03 03:52:06;;;;;;;3.65;1.58;;;1.70;84.20;;;;;;5013928;28;20037;-69
2021/12/03 03:54:33;;;;;;;3.75;1.63;;;1.70;84.60;;;;;;5013904;28;20110;-69
2021/12/03 03:56:59;;;;;;;4.72;2.08;;;1.70;84.00;;;;;;5014212;28;20034;-70
2021/12/03 03:59:26;;;;;;;2.75;1.73;;;1.70;84.30;;;;;;5008479;28;20039;-69
2021/12/03 04:01:52;;;;;;;7.43;2.22;;;1.70;83.50;;;;;;5017575;28;20029;-70
2021/12/03 04:04:18;;;;;;;2.67;1.52;;;1.70;83.70;;;;;;5023687;28;20045;-69
2021/12/03 04:06:44;;;;;;;4.40;2.28;;;1.80;83.60;;;;;;4999367;28;20041;-69
2021/12/03 04:09:11;;;;;;;3.10;1.98;;;1.80;83.80;;;;;;5012473;28;20042;-69
2021/12/03 04:11:37;;;;;;;3.42;1.98;;;1.80;83.60;;;;;;5009838;28;20022;-70
2021/12/03 04:14:03;;;;;;;4.90;2.03;;;1.70;83.50;;;;;;5016921;28;20511;-69
2021/12/03 04:16:30;;;;;;;4.20;1.65;;;1.80;83.80;;;;;;5015417;28;20056;-70
2021/12/03 04:18:57;;;;;;;5.93;1.33;;;1.80;83.50;;;;;;5016875;28;20037;-71
2021/12/03 04:21:23;;;;;;;6.13;1.70;;;1.80;83.70;;;;;;5011552;28;20765;-69
2021/12/03 04:23:48;;;;;;;2.38;1.10;;;1.70;83.40;;;;;;5012078;28;20112;-69
2021/12/03 04:26:14;;;;;;;4.95;1.80;;;1.70;83.80;;;;;;5014899;28;20030;-69
2021/12/03 04:28:40;;;;;;;7.43;1.90;;;1.70;84.00;;;;;;5012351;28;20124;-70
2021/12/03 04:31:06;;;;;;;3.88;1.77;;;1.70;83.70;;;;;;5017849;28;20520;-69
2021/12/03 04:33:32;;;;;;;2.15;1.48;;;1.70;83.30;;;;;;5012719;28;20040;-69
2021/12/03 04:35:58;;;;;;;3.17;1.38;;;1.70;83.70;;;;;;5016205;28;20033;-69
2021/12/03 04:38:24;;;;;;;1.52;0.90;;;1.70;83.30;;;;;;5013618;28;20680;-69
2021/12/03 04:40:50;;;;;;;2.65;1.25;;;1.70;83.50;;;;;;5008413;28;20561;-69
2021/12/03 04:43:15;;;;;;;3.53;1.10;;;1.70;83.80;;;;;;5018533;28;20032;-70
2021/12/03 04:45:42;;;;;;;1.75;0.93;;;1.70;84.10;;;;;;5014383;28;20132;-69
2021/12/03 04:48:07;;;;;;;6.03;1.08;;;1.70;84.00;;;;;;5015335;28;20029;-69
2021/12/03 04:50:37;;;;;;;2.22;1.13;;;1.70;83.90;;;;;;5002958;28;20477;-70
2021/12/03 04:53:04;;;;;;;3.15;1.20;;;1.70;83.90;;;;;;5009802;28;20030;-70
2021/12/03 04:55:30;;;;;;;5.57;1.23;;;1.70;83.70;;;;;;5016317;28;20037;-70
2021/12/03 04:57:56;;;;;;;2.15;1.10;;;1.70;83.80;;;;;;5017711;28;20033;-69
2021/12/03 05:00:29;;;;;;;4.57;1.42;;;1.70;83.60;;;;;;5016523;28;20784;-70
2021/12/03 05:02:55;;;;;;;3.58;1.13;;;1.70;83.60;;;;;;5009223;28;20430;-70
2021/12/03 05:05:24;;;;;;;3.05;1.33;;;1.80;83.60;;;;;;5011706;28;20172;-70
2021/12/03 05:07:59;;;;;;;6.22;1.50;;;1.80;83.20;;;;;;5013285;28;20046;-70
2021/12/03 05:10:30;;;;;;;3.17;1.10;;;1.80;83.50;;;;;;5010004;28;20037;-70
2021/12/03 05:13:24;;;;;;;6.03;1.45;;;1.80;83.80;;;;;;5015423;28;20542;-70
2021/12/03 05:15:50;;;;;;;5.07;1.20;;;1.80;83.90;;;;;;5009293;28;20503;-70
2021/12/03 05:18:19;;;;;;;1.75;1.17;;;1.70;83.60;;;;;;5014372;28;20030;-70
2021/12/03 05:20:46;;;;;;;9.07;1.73;;;1.70;83.40;;;;;;5007687;28;20038;-69
2021/12/03 05:23:13;;;;;;;2.38;1.17;;;1.70;83.80;;;;;;5009631;28;20040;-69
2021/12/03 05:25:39;;;;;;;4.03;1.63;;;1.80;83.70;;;;;;5016417;28;20060;-69
2021/12/03 05:28:05;;;;;;;2.45;1.77;;;1.80;83.60;;;;;;5018258;28;20095;-70
2021/12/03 05:30:32;;;;;;;3.60;1.50;;;1.80;83.70;;;;;;5017447;28;20026;-69
2021/12/03 05:32:58;;;;;;;1.52;1.08;;;1.80;83.80;;;;;;5017419;28;20121;-69
2021/12/03 05:35:25;;;;;;;4.00;1.55;;;1.80;83.80;;;;;;5018293;28;20049;-69
2021/12/03 05:37:51;;;;;;;6.10;1.88;;;1.80;83.60;;;;;;5016647;28;20032;-69
2021/12/03 05:40:17;;;;;;;3.58;1.45;;;1.80;83.40;;;;;;5022393;28;20397;-70
2021/12/03 05:42:45;;;;;;;3.58;1.98;;;1.90;82.90;;;;;;5019431;28;20029;-70
2021/12/03 05:45:14;;;;;;;3.15;1.77;;;1.80;83.20;;;;;;5014419;28;20120;-70
2021/12/03 05:47:40;;;;;;;3.03;1.27;;;1.80;83.60;;;;;;5017068;28;20140;-70
2021/12/03 05:50:07;;;;;;;4.25;1.70;;;1.80;83.40;;;;;;5014174;28;20030;-70
2021/12/03 05:52:33;;;;;;;2.70;1.45;;;1.80;83.20;;;;;;5017682;28;20481;-70
2021/12/03 05:54:59;;;;;;;5.13;1.30;;;1.80;83.20;;;;;;4997739;28;20064;-70
2021/12/03 05:57:24;;;;;;;5.90;1.80;;;1.80;83.00;;;;;;5020654;28;20021;-70
2021/12/03 05:59:50;;;;;;;2.97;1.70;;;1.70;83.50;;;;;;5020774;28;20041;-70
2021/12/03 06:02:16;;;;;;;5.20;2.03;;;1.80;83.80;;;;;;5016103;28;20081;-71
2021/12/03 06:04:41;;;;;;;5.90;1.80;;;1.70;83.80;;;;;;5012669;28;20033;-70
2021/12/03 06:07:07;;;;;;;4.97;1.98;;;1.80;83.60;;;;;;5020153;28;20034;-71
2021/12/03 06:09:33;;;;;;;7.15;2.03;;;1.80;83.70;;;;;;5020491;28;20085;-70
2021/12/03 06:12:01;;;;;;;4.55;2.13;;;1.80;83.40;;;;;;5018597;28;20026;-70
2021/12/03 06:14:28;;;;;;;6.78;2.80;;;1.80;83.30;;;;;;5013737;28;20034;-70
2021/12/03 06:16:54;;;;;;;3.85;1.95;;;1.90;83.90;;;;;;5022916;28;20112;-70
2021/12/03 06:19:20;;;;;;;7.72;2.50;;;1.90;84.00;;;;;;5014387;28;20806;-70
2021/12/03 06:21:46;;;;;;;6.00;2.45;;;2.00;83.40;;;;;;5024405;28;20029;-70
2021/12/03 06:24:12;;;;;;;3.15;1.92;;;2.00;83.20;;;;;;5022416;28;20076;-70
2021/12/03 06:26:37;;;;;;;8.25;2.80;;;1.90;83.20;;;;;;5016049;28;20025;-68
2021/12/03 06:29:03;;;;;;;4.60;2.03;;;2.00;83.20;;;;;;5020153;28;20144;-70
2021/12/03 06:31:29;;;;;;;5.93;2.10;;;2.00;83.30;;;;;;5016763;28;20278;-70
2021/12/03 06:33:55;;;;;;;5.75;2.85;;;2.00;83.00;;;;;;5020599;28;20076;-70
2021/12/03 06:36:21;;;;;;;5.50;2.40;;;2.00;83.40;;;;;;5019094;28;20057;-70
2021/12/03 06:38:46;;;;;;;7.50;2.90;;;2.00;83.00;;;;;;5019036;28;20030;-69
2021/12/03 06:41:12;;;;;;;6.95;2.60;;;2.00;83.30;;;;;;5018494;28;20541;-70
2021/12/03 06:43:38;;;;;;;21.60;7.70;;;2.00;83.20;;;;;;5019231;28;20646;-70
2021/12/03 06:46:04;;;;;;;17.48;8.23;;;2.00;83.10;;;;;;5020861;28;20025;-69
2021/12/03 06:48:30;;;;;;;20.63;9.70;;;2.00;83.30;;;;;;5021794;28;20038;-69
2021/12/03 06:50:56;;;;;;;9.70;4.57;;;1.90;83.10;;;;;;5020589;28;20037;-69
2021/12/03 06:53:25;;;;;;;23.23;10.77;;;2.00;83.20;;;;;;5005481;28;20026;-70
2021/12/03 06:55:54;;;;;;;10.25;7.47;;;1.90;83.50;;;;;;5019521;28;20038;-70
2021/12/03 06:58:21;;;;;;;7.40;4.72;;;1.90;83.50;;;;;;5018284;28;20049;-70
2021/12/03 07:00:50;;;;;;;8.90;3.58;;;1.90;84.10;;;;;;5013824;28;20263;-70
2021/12/03 07:03:16;;;;;;;8.30;5.28;;;1.90;84.10;;;;;;5005885;28;20033;-70
2021/12/03 07:05:42;;;;;;;13.52;6.47;;;1.90;84.10;;;;;;5015307;28;20103;-70
2021/12/03 07:08:08;;;;;;;12.98;5.38;;;2.00;83.90;;;;;;5018878;28;20037;-69
2021/12/03 07:10:35;;;;;;;18.45;8.98;;;2.00;83.60;;;;;;5022342;28;20025;-71
2021/12/03 07:13:01;;;;;;;13.40;5.38;;;2.00;83.70;;;;;;5018014;28;20026;-70
2021/12/03 07:15:27;;;;;;;11.52;7.22;;;2.00;83.50;;;;;;5016039;28;20027;-70
2021/12/03 07:17:53;;;;;;;8.80;7.15;;;2.00;83.50;;;;;;5018823;28;20034;-69
2021/12/03 07:20:22;;;;;;;8.55;3.83;;;2.00;83.90;;;;;;5003537;28;20045;-69
2021/12/03 07:22:49;;;;;;;5.45;3.85;;;2.00;83.90;;;;;;5022536;28;20030;-70
2021/12/03 07:25:15;;;;;;;5.32;2.90;;;2.10;84.10;;;;;;5012680;28;20101;-69
2021/12/03 07:27:41;;;;;;;6.70;3.35;;;2.00;83.60;;;;;;5019877;28;20033;-70
2021/12/03 07:30:09;;;;;;;6.78;3.20;;;2.10;84.30;;;;;;5021051;28;20029;-70
2021/12/03 07:32:35;;;;;;;7.65;3.40;;;2.10;84.20;;;;;;5022730;28;20033;-70
2021/12/03 07:35:01;;;;;;;6.85;2.83;;;2.20;83.80;;;;;;5013456;28;20025;-70
2021/12/03 07:37:27;;;;;;;4.97;2.42;;;2.30;83.30;;;;;;5017151;28;20041;-69
2021/12/03 07:39:53;;;;;;;7.93;3.45;;;2.30;83.20;;;;;;5021249;28;20025;-69
2021/12/03 07:42:19;;;;;;;4.53;2.67;;;2.30;83.00;;;;;;5014446;28;20041;-70
2021/12/03 07:44:45;;;;;;;8.07;3.05;;;2.40;82.90;;;;;;5016440;28;20114;-70
2021/12/03 07:47:11;;;;;;;6.03;2.65;;;2.40;83.00;;;;;;5023273;28;20041;-69
2021/12/03 07:49:39;;;;;;;6.28;3.30;;;2.50;82.20;;;;;;5004309;28;20037;-70
2021/12/03 07:52:05;;;;;;;7.15;2.47;;;2.60;82.30;;;;;;5006353;28;20108;-69
2021/12/03 07:54:31;;;;;;;7.00;3.53;;;2.70;81.90;;;;;;5014432;28;20031;-70
2021/12/03 07:56:57;;;;;;;7.82;3.40;;;2.70;81.30;;;;;;5019338;28;20035;-69
2021/12/03 07:59:22;;;;;;;5.65;2.70;;;2.80;81.00;;;;;;5023729;28;20574;-69
2021/12/03 08:01:48;;;;;;;7.82;3.15;;;2.80;81.20;;;;;;5018529;28;20025;-69
2021/12/03 08:04:14;;;;;;;3.63;2.40;;;2.80;81.30;;;;;;5022769;28;20068;-70
2021/12/03 08:06:42;;;;;;;7.65;2.50;;;2.80;80.90;;;;;;5009544;28;20041;-70
2021/12/03 08:09:09;;;;;;;5.95;2.47;;;2.80;80.30;;;;;;5017213;28;20410;-70
2021/12/03 08:11:37;;;;;;;10.23;2.40;;;2.90;81.10;;;;;;5018056;28;20033;-70
2021/12/03 08:14:03;;;;;;;6.28;2.28;;;2.90;80.40;;;;;;5015965;28;20033;-70
2021/12/03 08:16:29;;;;;;;7.18;2.42;;;3.00;79.50;;;;;;5016639;28;20033;-70
2021/12/03 08:18:54;;;;;;;4.85;2.55;;;3.00;79.50;;;;;;5016410;28;20863;-70
2021/12/03 08:21:20;;;;;;;4.75;2.25;;;3.10;79.50;;;;;;5021727;28;20057;-69
2021/12/03 08:23:48;;;;;;;4.28;2.10;;;3.20;79.00;;;;;;5018685;28;20042;-70
2021/12/03 08:26:14;;;;;;;4.43;2.30;;;3.30;79.20;;;;;;5014437;28;20453;-69
2021/12/03 08:28:40;;;;;;;3.90;1.85;;;3.40;78.40;;;;;;5018893;28;20033;-69
2021/12/03 08:31:07;;;;;;;3.85;2.15;;;3.40;77.80;;;;;;5018711;28;20021;-69
2021/12/03 08:33:33;;;;;;;6.35;2.50;;;3.40;77.70;;;;;;5007249;28;20030;-69
2021/12/03 08:35:58;;;;;;;5.80;2.45;;;3.40;77.70;;;;;;5015440;28;20030;-68
2021/12/03 08:38:24;;;;;;;5.60;2.03;;;3.40;78.00;;;;;;5015444;28;20844;-70
2021/12/03 08:40:50;;;;;;;5.32;2.92;;;3.60;77.90;;;;;;4999268;28;20045;-70
2021/12/03 08:43:16;;;;;;;4.63;2.30;;;3.70;77.60;;;;;;5018557;28;20094;-69
2021/12/03 08:45:41;;;;;;;3.25;2.03;;;3.90;76.60;;;;;;5007768;28;20051;-68
2021/12/03 08:48:07;;;;;;;6.32;1.95;;;3.90;76.00;;;;;;5015204;28;20528;-69
2021/12/03 08:50:46;;;;;;;4.70;2.55;;;4.00;75.30;;;;;;5015317;28;20067;-70
2021/12/03 08:54:49;;;;;;;5.32;2.20;;;4.10;75.60;;;;;;5000047;28;20405;-68
2021/12/03 08:56:06;;;;;;;5.28;2.30;;;4.10;75.60;;;;;;5022927;28;20107;-69
2021/12/03 08:58:32;;;;;;;8.98;3.08;;;4.10;75.40;;;;;;5017020;28;20576;-68
2021/12/03 09:00:58;;;;;;;4.38;2.58;;;4.20;74.70;;;;;;5020577;28;20057;-67
2021/12/03 09:03:25;;;;;;;4.72;2.55;;;4.40;74.50;;;;;;5003685;28;20286;-67
2021/12/03 09:05:51;;;;;;;7.05;2.67;;;4.50;74.20;;;;;;5008903;28;20049;-68
2021/12/03 09:08:16;;;;;;;13.85;7.80;;;4.70;73.80;;;;;;5002062;28;20181;-68
2021/12/03 09:10:42;;;;;;;14.75;6.10;;;5.00;72.70;;;;;;5018581;28;20083;-67
2021/12/03 09:13:08;;;;;;;25.98;11.82;;;5.50;70.00;;;;;;5018546;28;20013;-68
2021/12/03 09:15:39;;;;;;;27.05;11.77;;;6.00;68.40;;;;;;5023574;28;20067;-68
2021/12/03 09:18:15;;;;;;;26.75;12.30;;;6.30;66.00;;;;;;5007973;28;20034;-68
2021/12/03 09:20:47;;;;;;;12.70;6.22;;;6.50;65.70;;;;;;5015269;28;20022;-68
2021/12/03 09:24:02;;;;;;;5.53;3.67;;;6.60;64.60;;;;;;5015954;28;20764;-68
2021/12/03 09:26:13;;;;;;;8.23;4.15;;;6.70;63.80;;;;;;5011558;28;20072;-67
2021/12/03 09:28:41;;;;;;;;;;;6.90;63.20;;;;;;5011833;28;20104;-67
2021/12/03 09:31:09;;;;;;;5.65;2.80;;;7.00;62.20;;;;;;5019043;28;19909;-68
2021/12/03 09:33:36;;;;;;;6.05;2.70;;;6.80;62.20;;;;;;5001126;28;20105;-68
2021/12/03 09:36:04;;;;;;;4.55;2.53;;;6.40;63.80;;;;;;5010526;28;20025;-68
2021/12/03 09:38:34;;;;;;;5.55;3.05;;;6.20;64.90;;;;;;4999530;28;20049;-67
2021/12/03 09:41:09;;;;;;;7.30;3.33;;;5.90;66.00;;;;;;5016747;28;20033;-67
2021/12/03 09:43:39;;;;;;;4.88;2.42;;;5.60;67.00;;;;;;5014932;28;20033;-68
2021/12/03 09:46:15;;;;;;;7.20;2.85;;;5.40;68.50;;;;;;5012638;28;20360;-68
2021/12/03 09:51:08;;;;;;;7.70;2.88;;;5.30;69.20;;;;;;5015399;28;20040;-68
2021/12/03 09:56:02;;;;;;;3.85;2.55;;;5.10;69.70;;;;;;5015701;28;20177;-68
2021/12/03 10:01:19;;;;;;;5.07;3.25;;;5.00;70.90;;;;;;4996961;28;20140;-68
2021/12/03 10:20:08;;;;;;;7.75;4.85;;;4.90;70.00;;;;;;5015083;28;20042;-68
2021/12/03 10:38:33;;;;;;;11.50;2.67;;;4.80;72.20;;;;;;5019359;28;20070;-68
2021/12/03 10:41:16;;;;;;;7.93;2.28;;;4.90;72.30;;;;;;5020249;28;20037;-68
2021/12/03 10:44:05;;;;;;;4.25;1.92;;;5.00;72.10;;;;;;5021941;28;20791;-67
2021/12/03 11:25:13;;;;;;;5.93;2.45;;;4.70;73.50;;;;;;5013775;28;20048;-68
2021/12/03 11:29:52;;;;;;;4.13;2.20;;;4.80;73.00;;;;;;5019284;28;20156;-67
2021/12/03 11:54:45;;;;;;;7.68;2.67;;;5.00;71.60;;;;;;4925145;29;20626;-68
2021/12/03 12:05:29;;;;;;;5.57;2.95;;;5.20;71.40;;;;;;5017957;28;20037;-68
2021/12/03 12:25:19;;;;;;;9.40;3.53;;;5.40;71.20;;;;;;5017340;28;20037;-68
2021/12/03 12:34:23;;;;;;;7.07;3.78;;;5.40;70.60;;;;;;5018840;28;19924;-68
2021/12/03 13:24:05;;;;;;;5.75;3.40;;;5.20;72.00;;;;;;5017483;28;20105;-67
2021/12/03 13:28:56;;;;;;;8.52;4.20;;;5.20;72.60;;;;;;5018934;28;20046;-68
2021/12/03 14:00:01;;;;;;;14.32;5.20;;;4.80;73.20;;;;;;5019454;28;20030;-67
2021/12/03 14:50:39;;;;;;;9.13;4.32;;;4.40;76.80;;;;;;5019593;28;20038;-67
2021/12/03 14:55:56;;;;;;;10.07;4.82;;;4.50;76.30;;;;;;5005446;28;20489;-67
2021/12/03 14:59:07;;;;;;;10.65;4.68;;;4.40;76.60;;;;;;5020139;28;20091;-67
2021/12/03 15:09:20;;;;;;;8.15;4.40;;;4.30;77.10;;;;;;5022324;28;20037;-68
2021/12/03 15:18:22;;;;;;;12.23;6.07;;;4.20;77.70;;;;;;4993959;28;20046;-67
2021/12/03 15:23:49;;;;;;;8.77;5.15;;;4.20;78.20;;;;;;4962239;28;20109;-67
2021/12/03 15:36:12;;;;;;;8.88;4.55;;;4.30;77.70;;;;;;5017520;28;20033;-67
2021/12/03 15:39:02;;;;;;;7.53;4.30;;;4.30;77.60;;;;;;5013350;28;20044;-66
2021/12/03 15:51:56;;;;;;;12.02;4.70;;;4.30;78.00;;;;;;5021838;28;20033;-66
2021/12/03 15:54:11;;;;;;;10.40;4.60;;;4.30;78.50;;;;;;5016347;28;20116;-66
2021/12/03 15:58:47;;;;;;;10.40;4.15;;;4.30;78.20;;;;;;5019484;28;20115;-66
2021/12/03 16:08:42;;;;;;;9.55;4.57;;;4.20;78.60;;;;;;5014014;28;20162;-67
2021/12/03 16:11:14;;;;;;;10.93;4.47;;;4.20;78.40;;;;;;5017628;28;20434;-66
2021/12/03 16:13:50;;;;;;;8.45;4.35;;;4.10;78.90;;;;;;5017385;28;20069;-69
2021/12/03 16:27:04;;;;;;;7.82;4.25;;;4.30;79.20;;;;;;5012546;28;20493;-71
2021/12/03 16:53:49;;;;;;;9.18;3.78;;;4.20;78.10;;;;;;5015412;28;20036;-65
2021/12/03 16:56:23;;;;;;;7.47;3.15;;;4.10;78.30;;;;;;5016652;28;20039;-65
2021/12/03 16:58:49;;;;;;;6.00;3.92;;;4.10;79.00;;;;;;5018701;28;20037;-63
2021/12/03 17:01:21;;;;;;;4.85;3.10;;;4.20;78.50;;;;;;5011748;28;20033;-62
2021/12/03 17:04:01;;;;;;;6.30;2.97;;;4.20;78.90;;;;;;4994840;28;20029;-63
2021/12/03 18:00:08;;;;;;;6.82;3.38;;;4.10;77.80;;;;;;5013499;28;20041;-63
2021/12/03 18:02:57;;;;;;;6.03;3.00;;;4.10;77.60;;;;;;5018243;28;20045;-65
2021/12/03 18:05:34;;;;;;;8.60;3.13;;;4.10;77.60;;;;;;5001070;28;20049;-65
2021/12/03 18:55:55;;;;;;;8.50;3.28;;;4.00;76.90;;;;;;5016272;28;20037;-64
2021/12/03 18:58:24;;;;;;;5.97;2.80;;;4.10;76.80;;;;;;5020453;28;20072;-65
2021/12/03 19:00:51;;;;;;;7.13;3.47;;;4.10;76.70;;;;;;5016725;28;20133;-64
2021/12/03 19:08:30;;;;;;;6.25;3.42;;;4.10;77.10;;;;;;5017257;28;20058;-66
2021/12/03 19:11:03;;;;;;;6.60;3.40;;;4.00;77.80;;;;;;5015489;28;20046;-65
2021/12/03 19:13:37;;;;;;;7.32;3.50;;;4.10;77.60;;;;;;5023931;28;20087;-64
2021/12/03 19:16:04;;;;;;;7.57;3.53;;;4.00;77.60;;;;;;5000976;28;20105;-65
2021/12/03 19:18:30;;;;;;;12.13;4.38;;;4.00;78.10;;;;;;5009539;28;20132;-66
2021/12/03 19:20:57;;;;;;;11.68;3.80;;;4.00;77.60;;;;;;5013700;28;20104;-66
2021/12/03 19:23:23;;;;;;;5.90;3.03;;;4.00;77.70;;;;;;4984917;28;20504;-66
2021/12/03 19:25:49;;;;;;;7.28;3.00;;;3.90;78.30;;;;;;5014350;28;20037;-66
2021/12/03 19:28:15;;;;;;;5.00;3.20;;;3.90;77.90;;;;;;5021574;28;20124;-65
2021/12/03 19:30:41;;;;;;;9.10;3.65;;;4.10;77.30;;;;;;5017556;28;20752;-66
2021/12/03 19:33:07;;;;;;;5.43;3.38;;;4.10;77.00;;;;;;5014546;28;20123;-65
2021/12/03 19:35:34;;;;;;;7.07;3.35;;;4.20;76.70;;;;;;5013452;28;20473;-64
2021/12/03 19:38:02;;;;;;;6.18;3.03;;;4.20;75.90;;;;;;5015902;28;20790;-65
2021/12/03 19:40:33;;;;;;;7.32;3.65;;;4.20;76.50;;;;;;5017179;28;20041;-65
2021/12/03 19:43:04;;;;;;;6.30;3.20;;;4.30;76.00;;;;;;5015400;28;20536;-66
2021/12/03 19:45:34;;;;;;;5.53;3.30;;;4.20;75.40;;;;;;5009111;28;20494;-65
2021/12/03 19:48:11;;;;;;;7.40;3.38;;;4.00;76.00;;;;;;5013475;28;20030;-65
2021/12/03 19:50:42;;;;;;;6.35;3.20;;;4.10;76.40;;;;;;5012403;28;20061;-66
2021/12/03 19:53:17;;;;;;;12.52;3.42;;;4.00;76.70;;;;;;5019297;28;20025;-65
2021/12/03 19:55:44;;;;;;;5.50;2.80;;;4.10;77.20;;;;;;5017775;28;20038;-66
2021/12/03 19:58:13;;;;;;;5.10;2.90;;;4.10;77.40;;;;;;5014099;28;20034;-65
2021/12/03 20:00:42;;;;;;;9.70;2.92;;;4.20;76.70;;;;;;4998350;28;20048;-68
2021/12/03 20:03:09;;;;;;;6.88;3.13;;;4.20;77.20;;;;;;5023014;28;20525;-66
2021/12/03 20:05:36;;;;;;;4.47;2.90;;;4.10;77.50;;;;;;5013772;28;20079;-66
2021/12/03 20:08:04;;;;;;;10.13;3.70;;;4.10;78.00;;;;;;5004788;28;20029;-66
2021/12/03 20:10:32;;;;;;;5.57;3.30;;;4.00;79.30;;;;;;5015780;28;20048;-65
2021/12/03 20:13:00;;;;;;;9.00;4.00;;;3.90;80.60;;;;;;5015304;28;20026;-66
2021/12/03 20:20:32;;;;;;;5.75;3.67;;;3.70;83.10;;;;;;5019462;28;20391;-65
2021/12/03 20:28:26;;;;;;;7.55;3.85;;;3.50;86.40;;;;;;5021135;28;20068;-66
2021/12/03 20:31:00;;;;;;;5.43;3.50;;;3.40;86.30;;;;;;5019347;28;20086;-66
2021/12/03 20:33:57;;;;;;;8.23;3.78;;;3.50;86.60;;;;;;4997674;28;20104;-66
2021/12/03 20:39:13;;;;;;;4.65;3.45;;;3.40;86.70;;;;;;5014935;28;20501;-66
2021/12/03 20:41:45;;;;;;;7.17;4.07;;;3.40;86.30;;;;;;4997431;28;20044;-66
2021/12/03 20:57:46;;;;;;;8.38;4.57;;;3.50;86.80;;;;;;5010264;28;20481;-65
2021/12/03 21:08:35;;;;;;;6.28;3.78;;;3.50;85.30;;;;;;5019938;28;20083;-65